Douglas Farias

Olheiro - Sampaio Correa
3 Dez 2028
Domingo
Processo

Personalidade

Adaptabilidade (12) Ambição (7) Controvérsia (7) Lealdade (5) Pressão (1) Profissionalismo (13) Espírito Esportivo (4) Temperamento (9)

Perfil

Estilo de Treinamento Democrático
Licença Continental A
Determinação 11
Gestão de Pessoas 10
Motivação 11
Disciplina 5
Satisfação no Trabalho
100%
Fadiga
0%
Função Olheiro
Salário 54.7K p/s
Contrato 14.03.2030

Desempenho

Comportamento Bom
Eficácia do Treinamento
28%
Desenvolvimento do Jogador
50%
Prevenção de Lesões
20%
Implementação Tática
15%

Eventos Recentes

Participou de uma reunião de recrutamento agora
Recomendou um alvo de transferência agora
Recomendou um alvo de transferência agora
Participou de uma reunião de recrutamento 7d atrás
Recomendou um alvo de transferência 7d atrás
Recomendou um alvo de transferência 7d atrás
Recomendou um alvo de transferência 14d atrás
Recomendou um alvo de transferência 14d atrás

Monitorando agora

161
Jogador Clube Status Habilidade Confiança Observado Última observação Último voto
Guilherme Reis Sport Recife Relatório pronto 83 / 87 70% 1 01.12.2028 -
Luís Felipy Internacional Relatório pronto 82 / 86 70% 1 01.12.2028 -
Ramon Riquelme Palmeiras Relatório pronto 83 / 87 70% 1 01.12.2028 -
Damián Adín San Miguel Ativo 112 / 115 40% 1 30.11.2028 -
Luis Olivera Defensores Unidos Ativo 110 / 101 40% 1 30.11.2028 -
Julián Palacios Envigado Ativo 121 / 127 40% 1 30.11.2028 -
Rickelme Sport Recife Negociando 94 / 91 69% 1 03.07.2028 -
Jack Fitzwater Exeter City Ativo 99 / 120 40% 1 31.05.2028 -
Ben Whiteman Harrogate Town Ativo 130 / 124 40% 2 30.05.2028 -
Filip Lissah Shrewsbury Town Ativo 108 / 110 40% 2 30.05.2028 -
Marvin Kaleta Rotherham United Ativo 118 / 101 40% 1 30.05.2028 -
Liam Bennett Cambridge United Ativo 117 / 122 40% 1 28.05.2028 -
Nesta Guinness-Walker Bradford City Ativo 106 / 122 40% 2 27.05.2028 -
Matthew Smith Accrington Stanley Ativo 108 / 119 40% 2 26.05.2028 -
Gonçalo Braga Lusitânia Lourosa Ativo 99 / 112 40% 3 22.05.2028 -
Ethan Erhahon Cheltenham Town Ativo 127 / 103 40% 3 20.05.2028 -
Dean Campbell Northampton Town Ativo 117 / 119 40% 1 20.05.2028 -
Marc Baró Leiria Ativo 116 / 126 40% 9 19.05.2028 -
Jay McGrath Doncaster Rovers Ativo 103 / 120 40% 2 19.05.2028 -
Louis Reed Mansfield Town Ativo 108 / 106 40% 1 12.05.2028 -
Zé Carlos Gil Vicente Ativo 130 / 113 40% 4 11.05.2028 -
Rio Adébísí Peterborough United Ativo 108 / 102 40% 1 10.05.2028 -
Greg Docherty Barrow AFC Ativo 123 / 126 40% 2 07.05.2028 -
Ellis Iandolo Colchester United Ativo 108 / 96 40% 1 07.05.2028 -
Pol Valentín Cambridge United Ativo 112 / 121 40% 1 05.05.2028 -
Owen Bailey Doncaster Rovers Ativo 105 / 103 40% 2 04.05.2028 -
Ryan Stirk Chesterfield Ativo 101 / 117 40% 1 04.05.2028 -
Jayden Sweeney Grimsby Town Ativo 101 / 112 40% 1 03.05.2028 -
Samuel Justo Sporting CP Ativo 123 / 133 40% 4 30.04.2028 -
Saxon Earley Accrington Stanley Ativo 95 / 107 40% 2 25.04.2028 -
Tom Pearce Chesterfield Ativo 105 / 106 40% 2 15.04.2028 -
Daniel Banjaqui Benfica Ativo 126 / 113 40% 4 14.04.2028 -
Tobías Ostchega America Mineiro Ativo 129 / 121 40% 3 12.04.2028 -
Anílson Pacos de Ferreira Ativo 109 / 108 40% 5 11.04.2028 -
Kaíque Rocha Casa Pia Ativo 107 / 103 40% 3 05.04.2028 -
Paik Seung-Ho Birmingham Ativo 136 / 140 40% 1 05.04.2028 -
Felipe Amaral America Mineiro Ativo 111 / 126 40% 1 02.04.2028 -
Martim Cunha Porto Ativo 97 / 98 40% 5 01.04.2028 -
Jay Matete Milton Keynes Dons Ativo 119 / 104 40% 1 31.03.2028 -
Tomás Pérez Porto Ativo 120 / 123 40% 1 31.03.2028 -
Michael Baidoo Plymouth Argyle Ativo 139 / 146 40% 1 28.03.2028 -
Kyle John Port Vale Ativo 122 / 116 40% 1 28.03.2028 -
Tom Hamer Lincoln City Ativo 115 / 115 40% 1 27.03.2028 -
Marc Bola Watford Ativo 135 / 133 40% 2 25.03.2028 -
Ryan Wintle Milton Keynes Dons Ativo 114 / 120 40% 1 24.03.2028 -
Gonçalo Oliveira Benfica Ativo 114 / 111 40% 2 22.03.2028 -
Joshua Quarshie Exeter City Ativo 120 / 121 40% 1 18.03.2028 -
André Oliveira Porto Ativo 117 / 113 40% 2 16.03.2028 -
Ar'jany Martha Rotherham United Ativo 123 / 96 40% 1 21.06.2027 -
Sam Mather Walsall Ativo 105 / 104 40% 1 21.06.2027 -
Aaron Collins Milton Keynes Dons Ativo 111 / 117 40% 1 21.06.2027 -
João Dalla Corte Internacional Ativo 97 / 107 65% 1 06.06.2027 Aprovar
Hector Kyprianou Watford Ativo 131 / 135 40% 2 29.05.2027 -
Joel Bagan Cardiff City Ativo 104 / 119 40% 5 22.05.2027 -
Connor Barrett Walsall Ativo 99 / 100 40% 2 22.05.2027 -
Max Conway Bolton Wanderers Ativo 131 / 131 40% 1 22.05.2027 -
Connor Ogilvie Grimsby Town Ativo 105 / 100 40% 2 19.05.2027 -
Pedro Bondo Famalicao Ativo 116 / 119 40% 1 19.05.2027 -
Ethan Pye Stockport County Ativo 123 / 115 40% 4 15.05.2027 -
Sondre Tronstad Blackburn Rovers Ativo 120 / 127 40% 1 15.05.2027 -
Michael Rose Salford City Ativo 98 / 108 40% 1 13.05.2027 -
Radinio Balker Huddersfield Town Ativo 106 / 114 40% 1 13.05.2027 -
Atsuki Ito Bolton Wanderers Ativo 137 / 109 40% 1 13.05.2027 -
Andre Dozzell Bradford City Ativo 115 / 105 40% 1 06.05.2027 -
Alfie Devine Preston Ativo 116 / 137 40% 1 05.05.2027 -
Matthew Targett Hull City Ativo 125 / 124 40% 3 04.05.2027 -
Ryan Johnson AFC Wimbledon Ativo 96 / 113 40% 1 04.05.2027 -
Marcus Ifill Crewe Alexandra Ativo 95 / 108 40% 1 02.05.2027 -
Lewis Bate Stockport County Ativo 124 / 125 40% 3 01.05.2027 -
Marcus McGuane Huddersfield Town Ativo 124 / 104 40% 1 26.04.2027 -
David Moreira Sporting CP Ativo 103 / 99 40% 1 26.04.2027 -
Richard Boadu Medeama Ativo 96 / 103 40% 1 22.04.2027 -
Liam Thompson Mansfield Town Ativo 127 / 127 40% 2 20.04.2027 -
Charlie Goode Exeter City Ativo 114 / 116 40% 1 19.04.2027 -
Leeroy Owusu Hearts of Oak Ativo 127 / 116 40% 1 16.04.2027 -
Paulo Vitor Akron Ativo 109 / 99 40% 2 14.04.2027 -
Jack Currie Oxford United Ativo 120 / 109 40% 1 12.04.2027 -
Pelle Mattsson Norwich City Ativo 120 / 139 40% 3 08.04.2027 -
Bosun Lawal Stoke City Ativo 135 / 132 40% 1 06.04.2027 -
Adam Randell Bristol City Ativo 140 / 133 40% 1 06.04.2027 -
Ronnie Edwards Queens Park Rangers Ativo 135 / 146 40% 1 04.04.2027 -
Ben Sheaf Wrexham Ativo 131 / 123 40% 1 30.03.2027 -
Taichi Fukui Arouca Ativo 136 / 127 40% 3 23.03.2027 -
David Sousa Casa Pia Ativo 117 / 122 40% 2 23.03.2027 -
Tiago Galletto AVS Ativo 113 / 119 40% 1 23.03.2027 -
Pedro Amaral Rio Ave Ativo 115 / 124 40% 2 22.03.2027 -
Mateja Stjepanović Moreirense Ativo 117 / 108 40% 4 18.03.2027 -
Lucas Soares Santa Clara Ativo 117 / 111 40% 2 18.03.2027 -
Diogo Monteiro Tondela Ativo 104 / 99 40% 1 18.03.2027 -
Facundo Cáseres Gil Vicente Ativo 113 / 111 40% 4 17.03.2027 -
Javi Sánchez Arouca Ativo 138 / 141 40% 2 17.03.2027 -
Juan María Alcedo Torreense Ativo 116 / 112 40% 1 17.03.2027 -
Miguel Pires Vizela Ativo 112 / 124 40% 1 10.03.2027 -
Iano Simão Penafiel Ativo 99 / 94 40% 1 10.03.2027 -
Valery Académico de Viseu Ativo 115 / 112 40% 3 06.03.2027 -
Dylan Collard Lusitânia Lourosa Ativo 116 / 118 40% 3 06.03.2027 -
Arnau Casas Leixões Ativo 117 / 122 40% 2 01.03.2027 -
Hugo Pérez Torreense Ativo 120 / 133 40% 1 01.03.2027 -
Bernardo Schappo Estrela da Amadora Ativo 128 / 119 40% 1 25.02.2027 -
José Gomes Nacional Ativo 128 / 108 40% 1 25.02.2027 -
Brandon Aguilera Rio Ave Ativo 131 / 128 40% 1 25.02.2027 -
Robinho Académico de Viseu Ativo 106 / 100 40% 1 23.02.2027 -
Tiago Esgaio Arouca Ativo 111 / 120 40% 2 22.02.2027 -
Tiago Parente Estoril Praia Ativo 102 / 116 40% 1 22.02.2027 -
Paulo Henrique Maritimo Ativo 126 / 100 40% 1 19.02.2027 -
Jose Fontán Arouca Ativo 133 / 113 40% 2 18.02.2027 -
Paulo Moreira Nacional Ativo 125 / 110 40% 3 17.02.2027 -
Jorge Fernandes Feirense Ativo 133 / 109 40% 2 17.02.2027 -
Miguel Campos Oliveirense Ativo 99 / 114 40% 1 17.02.2027 -
Luís Esteves Atlas Ativo 117 / 112 40% 1 11.02.2027 -
Maxime Dominguez Maritimo Ativo 114 / 136 40% 1 11.02.2027 -
Liziero Nacional Ativo 140 / 121 40% 3 08.02.2027 -
Pedro Ferreira Feirense Ativo 108 / 126 40% 2 07.02.2027 -
Abdu Conté Casa Pia Ativo 120 / 106 40% 1 04.02.2027 -
Àlex Carbonell Penafiel Ativo 119 / 96 40% 1 02.02.2027 -
Aleksandar Busnić Mlada Boleslav Ativo 111 / 112 40% 2 14.12.2026 -
Yago Santos America Mineiro Ativo 93 / 89 62% 1 07.12.2026 Aprovar
Simo Maritimo Ativo 115 / 118 40% 3 30.11.2026 -
Tyrese Campbell Sheffield United Ativo 140 / 127 40% 1 30.11.2026 -
João Carvalho Estoril Praia Ativo 147 / 145 40% 1 29.11.2026 -
Nabil Touaizi Alverca Ativo 110 / 129 40% 1 23.11.2026 -
Ole Pohlmann Rio Ave Ativo 115 / 117 40% 1 22.11.2026 -
Lorougnon Gohi Académico de Viseu Ativo 108 / 104 40% 2 16.11.2026 -
Lee Hyun-Ju Arouca Ativo 133 / 137 40% 2 15.11.2026 -
Nikola Gjorgjev Farense Ativo 102 / 116 40% 1 15.11.2026 -
Rui Pedro Felgueiras Ativo 125 / 117 40% 1 14.11.2026 -
Kiko Bondoso Moreirense Ativo 129 / 125 40% 1 14.11.2026 -
Jordan van der Gaag Leiria Ativo 117 / 110 40% 1 13.11.2026 -
Pablo Fernández Leiria Ativo 111 / 97 40% 1 13.11.2026 -
Pedro Maranhão Tondela Ativo 112 / 128 40% 1 06.11.2026 -
Alfonso Trezza Arouca Ativo 118 / 116 40% 1 06.11.2026 -
Jérémy Livolant Casa Pia Ativo 130 / 124 40% 1 30.10.2026 -
Lucas Fernandes Bolton Wanderers Ativo 99 / 104 40% 1 25.10.2026 -
Rony Lopes Tondela Ativo 122 / 134 40% 1 23.10.2026 -
Maga Leiria Ativo 122 / 96 40% 1 20.10.2026 -
Manu Pozo Torreense Ativo 108 / 137 40% 1 20.10.2026 -
Martín Ojeda Orlando City Ativo 130 / 133 40% 1 19.10.2026 -
Santi García Gil Vicente Ativo 131 / 121 40% 3 18.10.2026 -
Joe Hodge Tondela Ativo 125 / 109 40% 1 17.10.2026 -
Fabinho Lusitânia Lourosa Ativo 121 / 125 40% 1 05.10.2026 -
Miguel Tavares Vizela Ativo 111 / 125 40% 1 05.10.2026 -
Francisco Moura Porto Ativo 131 / 149 40% 1 03.10.2026 -
Murilo Souza Gil Vicente Ativo 112 / 125 40% 1 03.10.2026 -
Miguel Baeza Nacional Ativo 119 / 116 40% 1 09.09.2026 -
Ramiro Ruiz Rodríguez Atlético Tucumán Ativo 129 / 126 40% 1 07.09.2026 -
Martín Tejón Maritimo Ativo 120 / 107 40% 1 07.09.2026 -
Rochinha Casa Pia Ativo 102 / 106 40% 1 30.08.2026 -
Miguel Reisinho Feirense Ativo 124 / 135 40% 1 30.08.2026 -
Sabit Abdulai Alverca Ativo 102 / 101 40% 1 29.08.2026 -
Matheus Dias Nacional Ativo 121 / 107 40% 1 26.08.2026 -
Rafik Guitane Estoril Praia Ativo 115 / 138 40% 1 25.08.2026 -
André Clovis Académico de Viseu Ativo 134 / 104 40% 1 15.08.2026 -
Sorriso Famalicao Ativo 112 / 146 40% 1 15.08.2026 -
Figueiredo Alverca Ativo 117 / 116 40% 2 13.08.2026 -
Santiago Giordana Millonarios Ativo 125 / 108 40% 1 13.08.2026 -
Korede Osundina Casa Pia Ativo 122 / 103 40% 1 10.08.2026 -
Zack Steffen Colorado Rapids Ativo 126 / 129 40% 1 08.08.2026 -
Zion Suzuki Aston Villa Ativo 123 / 139 40% 1 08.08.2026 -
João Costa Porto Ativo 117 / 123 40% 1 07.08.2026 -
Luís Guilherme Sporting CP Ativo 134 / 113 40% 1 03.08.2026 -
Gianluca Prestianni Benfica Ativo 139 / 121 40% 1 02.08.2026 -